Clyde River, Canada
Current Conditions -  °F | °C
As of 7:00 PM on Wednesday 26 Nov 2014 (Local Time) from CYCY Reporting Station
Light Snow Light Snow  
Wind Chill: -19°   Ceiling: Unl
Heat Index: -8°   Visibility: 13mi
Dew Point: -13°   Wind: 5mph
Humidity: 77%   Direction: 240°WSW
Pressure: 29.52"   Gusts: NA
Location:  70.45°N, 68.57°W
Report Text: CYCY 270000Z 24004KT 13SM -SN SCT050 M22/M25 A2952 RMK SC4 -19.9/-22.1/0.2/36 TRACE LOOSE LAST STFD OB/NEXT 271500Z SLP002
Loading
Personal Weather Stations






























Interactive Weather Map New forecast layout! Learn more

10-Day Weather Forecast

Advertisements
Track Severe Weather on mobile